DAUL/LOO METAR and TAF weather

Enter ICAO airport designator
Station Type Date Time Source
DAUL METAR 2021/05/12 01:00 UTC NOAA

DAUL 120100Z 02008KT CAVOK 16/01 Q1021


Station Type Date Time Source
DAUL Decoded METAR 2021/05/12 01:00 UTC NOAA

Laghouat, Algeria (DAUL) 33-46N 002-56E 765M
May 11, 2021 - 09:00 PM EDT / 2021.05.12 0100 UTC
Wind: from the NNE (020 degrees) at 9 MPH (8 KT):0
Visibility: greater than 7 mile(s):0
Temperature: 60 F (16 C)
Dew Point: 33 F (1 C)
Relative Humidity: 36%
Pressure (altimeter): 30.15 in. Hg (1021 hPa)
ob: DAUL 120100Z 02008KT CAVOK 16/01 Q1021
cycle: 1

Station Type Date Time Source
DAUL TAF 2017/11/09 18:03 UTC NOAA

TAF DAUL 091700Z 0918/1009 02012KT 9999 SCT030 SCT100 PROB40
TEMPO 0918/0924 35020G30KT 4000 -TSRA FEW030CB

Example: see airport list